sensor_id;sensor_type;location;lat;lon;timestamp;temperature;humidity
23087;DHT22;11712;51.134;4.156;2022-08-19T00:01:34;19.70;99.90
23087;DHT22;11712;51.134;4.156;2022-08-19T00:04:03;19.70;99.90
23087;DHT22;11712;51.134;4.156;2022-08-19T00:06:30;19.70;99.90
23087;DHT22;11712;51.134;4.156;2022-08-19T00:08:57;19.70;99.90
23087;DHT22;11712;51.134;4.156;2022-08-19T00:11:23;19.60;99.90
23087;DHT22;11712;51.134;4.156;2022-08-19T00:13:50;19.50;99.90
23087;DHT22;11712;51.134;4.156;2022-08-19T00:16:19;19.40;99.90
23087;DHT22;11712;51.134;4.156;2022-08-19T00:18:47;19.10;99.90
23087;DHT22;11712;51.134;4.156;2022-08-19T00:21:13;19.00;99.90
23087;DHT22;11712;51.134;4.156;2022-08-19T00:23:40;19.00;99.90
23087;DHT22;11712;51.134;4.156;2022-08-19T00:26:07;18.90;99.90
23087;DHT22;11712;51.134;4.156;2022-08-19T00:28:33;18.90;99.90
23087;DHT22;11712;51.134;4.156;2022-08-19T00:31:02;19.00;99.90
23087;DHT22;11712;51.134;4.156;2022-08-19T00:33:29;18.90;99.90
23087;DHT22;11712;51.134;4.156;2022-08-19T00:35:58;19.00;99.90
23087;DHT22;11712;51.134;4.156;2022-08-19T00:38:24;19.00;99.90
23087;DHT22;11712;51.134;4.156;2022-08-19T00:40:50;18.80;99.90
23087;DHT22;11712;51.134;4.156;2022-08-19T00:43:19;18.80;99.90
23087;DHT22;11712;51.134;4.156;2022-08-19T00:45:46;18.70;99.90
23087;DHT22;11712;51.134;4.156;2022-08-19T00:48:13;18.70;99.90
23087;DHT22;11712;51.134;4.156;2022-08-19T00:50:40;18.70;99.90
23087;DHT22;11712;51.134;4.156;2022-08-19T00:53:10;18.60;99.90
23087;DHT22;11712;51.134;4.156;2022-08-19T00:55:37;18.40;99.90
23087;DHT22;11712;51.134;4.156;2022-08-19T00:58:07;18.50;99.90
23087;DHT22;11712;51.134;4.156;2022-08-19T01:00:35;18.40;99.90
23087;DHT22;11712;51.134;4.156;2022-08-19T01:03:08;18.40;99.90
23087;DHT22;11712;51.134;4.156;2022-08-19T01:05:35;18.50;99.90
23087;DHT22;11712;51.134;4.156;2022-08-19T01:08:03;18.60;99.90
23087;DHT22;11712;51.134;4.156;2022-08-19T01:10:37;18.60;99.90
23087;DHT22;11712;51.134;4.156;2022-08-19T01:13:05;18.40;99.90
23087;DHT22;11712;51.134;4.156;2022-08-19T01:15:34;18.40;99.90
23087;DHT22;11712;51.134;4.156;2022-08-19T01:18:05;18.40;99.90
23087;DHT22;11712;51.134;4.156;2022-08-19T01:20:32;18.30;99.90
23087;DHT22;11712;51.134;4.156;2022-08-19T01:23:00;18.20;99.90
23087;DHT22;11712;51.134;4.156;2022-08-19T01:25:41;18.20;99.90
23087;DHT22;11712;51.134;4.156;2022-08-19T01:28:24;18.20;99.90
23087;DHT22;11712;51.134;4.156;2022-08-19T01:30:54;18.20;99.90
23087;DHT22;11712;51.134;4.156;2022-08-19T01:33:20;18.40;99.90
23087;DHT22;11712;51.134;4.156;2022-08-19T01:35:47;18.40;99.90
23087;DHT22;11712;51.134;4.156;2022-08-19T01:38:22;18.50;99.90
23087;DHT22;11712;51.134;4.156;2022-08-19T01:40:49;18.70;99.90
23087;DHT22;11712;51.134;4.156;2022-08-19T01:43:15;18.60;99.90
23087;DHT22;11712;51.134;4.156;2022-08-19T01:45:40;18.60;99.90
23087;DHT22;11712;51.134;4.156;2022-08-19T01:48:07;18.60;99.90
23087;DHT22;11712;51.134;4.156;2022-08-19T01:50:34;18.60;99.90
23087;DHT22;11712;51.134;4.156;2022-08-19T01:53:01;18.50;99.90
23087;DHT22;11712;51.134;4.156;2022-08-19T01:55:27;18.40;99.90
23087;DHT22;11712;51.134;4.156;2022-08-19T01:57:56;18.20;99.90
23087;DHT22;11712;51.134;4.156;2022-08-19T02:00:24;18.10;99.90
23087;DHT22;11712;51.134;4.156;2022-08-19T02:02:50;18.20;99.90
23087;DHT22;11712;51.134;4.156;2022-08-19T02:05:16;18.30;99.90
23087;DHT22;11712;51.134;4.156;2022-08-19T02:07:43;18.10;99.90
23087;DHT22;11712;51.134;4.156;2022-08-19T02:10:14;17.90;99.90
23087;DHT22;11712;51.134;4.156;2022-08-19T02:12:41;17.80;99.90
23087;DHT22;11712;51.134;4.156;2022-08-19T02:15:07;17.80;99.90
23087;DHT22;11712;51.134;4.156;2022-08-19T02:17:33;17.50;99.90
23087;DHT22;11712;51.134;4.156;2022-08-19T02:19:59;17.50;99.90
23087;DHT22;11712;51.134;4.156;2022-08-19T02:22:25;17.70;99.90
23087;DHT22;11712;51.134;4.156;2022-08-19T02:24:52;17.60;99.90
23087;DHT22;11712;51.134;4.156;2022-08-19T02:27:18;17.60;99.90
23087;DHT22;11712;51.134;4.156;2022-08-19T02:29:46;17.70;99.90
23087;DHT22;11712;51.134;4.156;2022-08-19T02:32:12;17.60;99.90
23087;DHT22;11712;51.134;4.156;2022-08-19T02:34:39;17.30;99.90
23087;DHT22;11712;51.134;4.156;2022-08-19T02:37:05;17.20;99.90
23087;DHT22;11712;51.134;4.156;2022-08-19T02:39:31;17.20;99.90
23087;DHT22;11712;51.134;4.156;2022-08-19T02:41:56;17.20;99.90
23087;DHT22;11712;51.134;4.156;2022-08-19T02:44:24;17.10;99.90
23087;DHT22;11712;51.134;4.156;2022-08-19T02:46:50;17.10;99.90
23087;DHT22;11712;51.134;4.156;2022-08-19T02:49:15;17.10;99.90
23087;DHT22;11712;51.134;4.156;2022-08-19T02:51:43;17.10;99.90
23087;DHT22;11712;51.134;4.156;2022-08-19T02:54:10;17.20;99.90
23087;DHT22;11712;51.134;4.156;2022-08-19T02:56:39;17.30;99.90
23087;DHT22;11712;51.134;4.156;2022-08-19T02:59:05;17.40;99.90
23087;DHT22;11712;51.134;4.156;2022-08-19T03:01:34;17.50;99.90
23087;DHT22;11712;51.134;4.156;2022-08-19T03:04:03;17.60;99.90
23087;DHT22;11712;51.134;4.156;2022-08-19T03:06:29;17.60;99.90
23087;DHT22;11712;51.134;4.156;2022-08-19T03:08:56;17.60;99.90
23087;DHT22;11712;51.134;4.156;2022-08-19T03:11:30;17.60;99.90
23087;DHT22;11712;51.134;4.156;2022-08-19T03:13:57;17.40;99.90
23087;DHT22;11712;51.134;4.156;2022-08-19T03:16:25;17.30;99.90
23087;DHT22;11712;51.134;4.156;2022-08-19T03:18:52;17.40;99.90
23087;DHT22;11712;51.134;4.156;2022-08-19T03:21:21;17.30;99.90
23087;DHT22;11712;51.134;4.156;2022-08-19T03:23:47;17.30;99.90
23087;DHT22;11712;51.134;4.156;2022-08-19T03:26:13;17.30;99.90
23087;DHT22;11712;51.134;4.156;2022-08-19T03:28:41;17.20;99.90
23087;DHT22;11712;51.134;4.156;2022-08-19T03:31:10;17.10;99.90
23087;DHT22;11712;51.134;4.156;2022-08-19T03:33:36;17.00;99.90
23087;DHT22;11712;51.134;4.156;2022-08-19T03:38:36;17.20;99.90
23087;DHT22;11712;51.134;4.156;2022-08-19T03:41:04;17.10;99.90
23087;DHT22;11712;51.134;4.156;2022-08-19T03:43:32;17.20;99.90
23087;DHT22;11712;51.134;4.156;2022-08-19T03:46:04;17.20;99.90
23087;DHT22;11712;51.134;4.156;2022-08-19T03:48:31;17.10;99.90
23087;DHT22;11712;51.134;4.156;2022-08-19T03:50:58;17.10;99.90
23087;DHT22;11712;51.134;4.156;2022-08-19T03:53:26;17.10;99.90
23087;DHT22;11712;51.134;4.156;2022-08-19T03:55:52;17.10;99.90
23087;DHT22;11712;51.134;4.156;2022-08-19T03:58:19;17.10;99.90
23087;DHT22;11712;51.134;4.156;2022-08-19T04:00:44;17.00;99.90
23087;DHT22;11712;51.134;4.156;2022-08-19T04:03:10;17.00;99.90
23087;DHT22;11712;51.134;4.156;2022-08-19T04:05:36;16.90;99.90
23087;DHT22;11712;51.134;4.156;2022-08-19T04:08:04;17.00;99.90
23087;DHT22;11712;51.134;4.156;2022-08-19T04:10:35;17.00;99.90
23087;DHT22;11712;51.134;4.156;2022-08-19T04:13:01;16.90;99.90
23087;DHT22;11712;51.134;4.156;2022-08-19T04:15:27;16.70;99.90
23087;DHT22;11712;51.134;4.156;2022-08-19T04:17:56;16.80;99.90
23087;DHT22;11712;51.134;4.156;2022-08-19T04:20:22;16.90;99.90
23087;DHT22;11712;51.134;4.156;2022-08-19T04:22:47;16.90;99.90
23087;DHT22;11712;51.134;4.156;2022-08-19T04:25:13;16.80;99.90
23087;DHT22;11712;51.134;4.156;2022-08-19T04:27:39;16.80;99.90
23087;DHT22;11712;51.134;4.156;2022-08-19T04:30:05;16.70;99.90
23087;DHT22;11712;51.134;4.156;2022-08-19T04:32:30;16.60;99.90
23087;DHT22;11712;51.134;4.156;2022-08-19T04:34:57;16.50;99.90
23087;DHT22;11712;51.134;4.156;2022-08-19T04:37:25;16.60;99.90
23087;DHT22;11712;51.134;4.156;2022-08-19T04:39:51;16.60;99.90
23087;DHT22;11712;51.134;4.156;2022-08-19T04:42:36;16.70;99.90
23087;DHT22;11712;51.134;4.156;2022-08-19T04:45:11;16.60;99.90
23087;DHT22;11712;51.134;4.156;2022-08-19T04:47:38;16.50;99.90
23087;DHT22;11712;51.134;4.156;2022-08-19T04:50:05;16.40;99.90
23087;DHT22;11712;51.134;4.156;2022-08-19T04:52:31;16.40;99.90
23087;DHT22;11712;51.134;4.156;2022-08-19T04:54:58;16.50;99.90
23087;DHT22;11712;51.134;4.156;2022-08-19T04:57:24;16.70;99.90
23087;DHT22;11712;51.134;4.156;2022-08-19T04:59:53;16.60;99.90
23087;DHT22;11712;51.134;4.156;2022-08-19T05:02:19;16.60;99.90
23087;DHT22;11712;51.134;4.156;2022-08-19T05:04:45;16.60;99.90
23087;DHT22;11712;51.134;4.156;2022-08-19T05:07:11;16.60;99.90
23087;DHT22;11712;51.134;4.156;2022-08-19T05:09:37;16.70;99.90
23087;DHT22;11712;51.134;4.156;2022-08-19T05:12:03;16.80;99.90
23087;DHT22;11712;51.134;4.156;2022-08-19T05:14:29;16.80;99.90
23087;DHT22;11712;51.134;4.156;2022-08-19T05:16:54;16.70;99.90
23087;DHT22;11712;51.134;4.156;2022-08-19T05:19:20;16.80;99.90
23087;DHT22;11712;51.134;4.156;2022-08-19T05:22:04;16.90;99.90
23087;DHT22;11712;51.134;4.156;2022-08-19T05:24:48;17.10;99.90
23087;DHT22;11712;51.134;4.156;2022-08-19T05:27:14;17.20;99.90
23087;DHT22;11712;51.134;4.156;2022-08-19T05:29:39;17.10;99.90
23087;DHT22;11712;51.134;4.156;2022-08-19T05:32:06;17.10;99.90
23087;DHT22;11712;51.134;4.156;2022-08-19T05:34:36;17.10;99.90
23087;DHT22;11712;51.134;4.156;2022-08-19T05:37:03;17.10;99.90
23087;DHT22;11712;51.134;4.156;2022-08-19T05:39:31;17.20;99.90
23087;DHT22;11712;51.134;4.156;2022-08-19T05:42:03;17.40;99.90
23087;DHT22;11712;51.134;4.156;2022-08-19T05:44:32;17.50;99.90
23087;DHT22;11712;51.134;4.156;2022-08-19T05:46:59;17.50;99.90
23087;DHT22;11712;51.134;4.156;2022-08-19T05:49:26;17.50;99.90
23087;DHT22;11712;51.134;4.156;2022-08-19T05:51:53;17.60;99.90
23087;DHT22;11712;51.134;4.156;2022-08-19T05:54:20;17.70;99.90
23087;DHT22;11712;51.134;4.156;2022-08-19T05:56:46;17.90;99.90
23087;DHT22;11712;51.134;4.156;2022-08-19T05:59:14;17.90;99.90
23087;DHT22;11712;51.134;4.156;2022-08-19T06:01:42;18.10;99.90
23087;DHT22;11712;51.134;4.156;2022-08-19T06:04:08;18.30;99.90
23087;DHT22;11712;51.134;4.156;2022-08-19T06:06:35;18.50;99.90
23087;DHT22;11712;51.134;4.156;2022-08-19T06:09:03;18.50;99.90
23087;DHT22;11712;51.134;4.156;2022-08-19T06:11:45;18.60;99.90
23087;DHT22;11712;51.134;4.156;2022-08-19T06:14:14;18.70;99.90
23087;DHT22;11712;51.134;4.156;2022-08-19T06:16:41;18.80;99.90
23087;DHT22;11712;51.134;4.156;2022-08-19T06:19:11;18.80;99.90
23087;DHT22;11712;51.134;4.156;2022-08-19T06:21:39;18.80;99.90
23087;DHT22;11712;51.134;4.156;2022-08-19T06:24:08;18.80;99.90
23087;DHT22;11712;51.134;4.156;2022-08-19T06:26:36;18.80;99.90
23087;DHT22;11712;51.134;4.156;2022-08-19T06:29:05;19.00;99.90
23087;DHT22;11712;51.134;4.156;2022-08-19T06:31:33;19.20;99.90
23087;DHT22;11712;51.134;4.156;2022-08-19T06:34:06;19.20;99.90
23087;DHT22;11712;51.134;4.156;2022-08-19T06:36:37;19.20;99.90
23087;DHT22;11712;51.134;4.156;2022-08-19T06:39:18;19.10;99.90
23087;DHT22;11712;51.134;4.156;2022-08-19T06:41:47;19.10;99.90
23087;DHT22;11712;51.134;4.156;2022-08-19T06:44:13;19.20;99.90
23087;DHT22;11712;51.134;4.156;2022-08-19T06:46:40;19.40;99.90
23087;DHT22;11712;51.134;4.156;2022-08-19T06:49:07;19.50;99.90
23087;DHT22;11712;51.134;4.156;2022-08-19T06:51:35;19.50;99.90
23087;DHT22;11712;51.134;4.156;2022-08-19T06:54:02;19.60;99.90
23087;DHT22;11712;51.134;4.156;2022-08-19T06:56:30;19.50;99.90
23087;DHT22;11712;51.134;4.156;2022-08-19T06:59:01;19.60;99.90
23087;DHT22;11712;51.134;4.156;2022-08-19T07:01:27;19.60;99.90
23087;DHT22;11712;51.134;4.156;2022-08-19T07:03:52;19.40;99.90
23087;DHT22;11712;51.134;4.156;2022-08-19T07:06:19;19.60;99.90
23087;DHT22;11712;51.134;4.156;2022-08-19T07:08:46;19.60;99.90
23087;DHT22;11712;51.134;4.156;2022-08-19T07:11:15;19.70;99.90
23087;DHT22;11712;51.134;4.156;2022-08-19T07:13:41;19.70;99.90
23087;DHT22;11712;51.134;4.156;2022-08-19T07:16:14;19.90;99.90
23087;DHT22;11712;51.134;4.156;2022-08-19T07:18:41;20.10;99.90
23087;DHT22;11712;51.134;4.156;2022-08-19T07:21:18;20.20;99.90
23087;DHT22;11712;51.134;4.156;2022-08-19T07:23:45;20.30;99.90
23087;DHT22;11712;51.134;4.156;2022-08-19T07:26:17;20.30;99.90
23087;DHT22;11712;51.134;4.156;2022-08-19T07:28:45;20.30;99.90
23087;DHT22;11712;51.134;4.156;2022-08-19T07:31:18;20.20;99.90
23087;DHT22;11712;51.134;4.156;2022-08-19T07:33:45;20.10;99.90
23087;DHT22;11712;51.134;4.156;2022-08-19T07:36:14;20.20;99.90
23087;DHT22;11712;51.134;4.156;2022-08-19T07:38:43;20.30;99.90
23087;DHT22;11712;51.134;4.156;2022-08-19T07:41:11;20.30;99.90
23087;DHT22;11712;51.134;4.156;2022-08-19T07:43:38;20.30;99.90
23087;DHT22;11712;51.134;4.156;2022-08-19T07:46:04;20.40;99.90
23087;DHT22;11712;51.134;4.156;2022-08-19T07:48:30;20.50;99.90
23087;DHT22;11712;51.134;4.156;2022-08-19T07:50:57;20.70;99.90
23087;DHT22;11712;51.134;4.156;2022-08-19T07:53:24;20.90;99.90
23087;DHT22;11712;51.134;4.156;2022-08-19T07:55:50;20.70;99.90
23087;DHT22;11712;51.134;4.156;2022-08-19T07:58:19;20.90;99.90
23087;DHT22;11712;51.134;4.156;2022-08-19T08:00:48;20.90;99.90
23087;DHT22;11712;51.134;4.156;2022-08-19T08:03:16;20.90;99.90
23087;DHT22;11712;51.134;4.156;2022-08-19T08:05:42;20.90;99.90
23087;DHT22;11712;51.134;4.156;2022-08-19T08:08:27;20.90;99.90
23087;DHT22;11712;51.134;4.156;2022-08-19T08:11:05;21.10;99.90
23087;DHT22;11712;51.134;4.156;2022-08-19T08:13:31;20.90;99.90
23087;DHT22;11712;51.134;4.156;2022-08-19T08:15:58;21.00;99.90
23087;DHT22;11712;51.134;4.156;2022-08-19T08:18:24;21.20;99.90
23087;DHT22;11712;51.134;4.156;2022-08-19T08:20:50;21.10;99.90
23087;DHT22;11712;51.134;4.156;2022-08-19T08:23:15;21.10;99.90
23087;DHT22;11712;51.134;4.156;2022-08-19T08:25:48;21.10;99.90
23087;DHT22;11712;51.134;4.156;2022-08-19T08:28:15;21.10;99.90
23087;DHT22;11712;51.134;4.156;2022-08-19T08:30:41;21.20;99.90
23087;DHT22;11712;51.134;4.156;2022-08-19T08:33:08;21.30;99.90
23087;DHT22;11712;51.134;4.156;2022-08-19T08:35:33;21.40;99.90
23087;DHT22;11712;51.134;4.156;2022-08-19T08:37:59;21.40;99.90
23087;DHT22;11712;51.134;4.156;2022-08-19T08:43:06;21.40;99.90
23087;DHT22;11712;51.134;4.156;2022-08-19T08:45:42;21.60;99.90
23087;DHT22;11712;51.134;4.156;2022-08-19T08:48:24;21.60;99.90
23087;DHT22;11712;51.134;4.156;2022-08-19T08:50:52;21.70;99.90
23087;DHT22;11712;51.134;4.156;2022-08-19T08:53:20;21.70;99.90
23087;DHT22;11712;51.134;4.156;2022-08-19T08:55:46;21.60;99.90
23087;DHT22;11712;51.134;4.156;2022-08-19T08:58:24;21.50;99.90
23087;DHT22;11712;51.134;4.156;2022-08-19T09:00:51;21.60;99.90
23087;DHT22;11712;51.134;4.156;2022-08-19T09:03:27;21.50;99.90
23087;DHT22;11712;51.134;4.156;2022-08-19T09:06:18;21.50;99.90
23087;DHT22;11712;51.134;4.156;2022-08-19T09:11:40;21.50;99.90
23087;DHT22;11712;51.134;4.156;2022-08-19T09:14:09;21.70;99.90
23087;DHT22;11712;51.134;4.156;2022-08-19T09:16:37;21.50;99.90
23087;DHT22;11712;51.134;4.156;2022-08-19T09:19:07;21.40;99.90
23087;DHT22;11712;51.134;4.156;2022-08-19T09:21:34;21.40;99.90
23087;DHT22;11712;51.134;4.156;2022-08-19T09:24:01;21.40;99.90
23087;DHT22;11712;51.134;4.156;2022-08-19T09:26:27;21.50;99.90
23087;DHT22;11712;51.134;4.156;2022-08-19T09:28:53;21.60;99.90
23087;DHT22;11712;51.134;4.156;2022-08-19T09:31:22;21.80;99.90
23087;DHT22;11712;51.134;4.156;2022-08-19T09:33:49;21.90;99.90
23087;DHT22;11712;51.134;4.156;2022-08-19T09:36:17;22.00;99.90
23087;DHT22;11712;51.134;4.156;2022-08-19T09:38:44;21.90;99.90
23087;DHT22;11712;51.134;4.156;2022-08-19T09:41:13;21.90;99.90
23087;DHT22;11712;51.134;4.156;2022-08-19T09:43:40;21.80;99.90
23087;DHT22;11712;51.134;4.156;2022-08-19T09:46:07;21.70;99.90
23087;DHT22;11712;51.134;4.156;2022-08-19T09:48:41;21.60;99.90
23087;DHT22;11712;51.134;4.156;2022-08-19T09:51:11;21.80;99.90
23087;DHT22;11712;51.134;4.156;2022-08-19T09:53:42;21.80;99.90
23087;DHT22;11712;51.134;4.156;2022-08-19T09:56:07;21.90;99.90
23087;DHT22;11712;51.134;4.156;2022-08-19T09:58:35;21.90;99.90
23087;DHT22;11712;51.134;4.156;2022-08-19T10:01:02;22.20;99.90
23087;DHT22;11712;51.134;4.156;2022-08-19T10:03:29;22.30;99.90
23087;DHT22;11712;51.134;4.156;2022-08-19T10:05:55;22.10;99.90
23087;DHT22;11712;51.134;4.156;2022-08-19T10:08:24;22.10;99.90
23087;DHT22;11712;51.134;4.156;2022-08-19T10:10:51;22.10;99.90
23087;DHT22;11712;51.134;4.156;2022-08-19T10:13:19;22.10;99.90
23087;DHT22;11712;51.134;4.156;2022-08-19T10:15:48;22.20;99.90
23087;DHT22;11712;51.134;4.156;2022-08-19T10:18:17;22.50;99.90
23087;DHT22;11712;51.134;4.156;2022-08-19T10:20:44;22.60;99.90
23087;DHT22;11712;51.134;4.156;2022-08-19T10:23:11;22.70;99.90
23087;DHT22;11712;51.134;4.156;2022-08-19T10:25:37;22.90;99.90
23087;DHT22;11712;51.134;4.156;2022-08-19T10:28:04;22.70;99.90
23087;DHT22;11712;51.134;4.156;2022-08-19T10:30:31;22.80;99.90
23087;DHT22;11712;51.134;4.156;2022-08-19T10:32:57;22.80;99.90
23087;DHT22;11712;51.134;4.156;2022-08-19T10:35:23;23.00;99.90
23087;DHT22;11712;51.134;4.156;2022-08-19T10:37:50;23.00;99.90
23087;DHT22;11712;51.134;4.156;2022-08-19T10:40:16;22.80;99.90
23087;DHT22;11712;51.134;4.156;2022-08-19T10:42:41;22.70;99.90
23087;DHT22;11712;51.134;4.156;2022-08-19T10:45:07;22.60;99.90
23087;DHT22;11712;51.134;4.156;2022-08-19T10:47:35;22.40;99.90
23087;DHT22;11712;51.134;4.156;2022-08-19T10:50:00;22.40;99.90
23087;DHT22;11712;51.134;4.156;2022-08-19T10:52:46;22.90;99.90
23087;DHT22;11712;51.134;4.156;2022-08-19T10:55:12;23.50;99.90
23087;DHT22;11712;51.134;4.156;2022-08-19T10:58:15;23.80;99.90
23087;DHT22;11712;51.134;4.156;2022-08-19T11:00:42;24.00;99.90
23087;DHT22;11712;51.134;4.156;2022-08-19T11:03:09;23.70;99.90
23087;DHT22;11712;51.134;4.156;2022-08-19T11:05:35;23.50;99.90
23087;DHT22;11712;51.134;4.156;2022-08-19T11:08:03;23.40;99.90
23087;DHT22;11712;51.134;4.156;2022-08-19T11:10:28;23.40;99.90
23087;DHT22;11712;51.134;4.156;2022-08-19T11:12:54;23.50;99.90
23087;DHT22;11712;51.134;4.156;2022-08-19T11:15:21;23.90;99.90
23087;DHT22;11712;51.134;4.156;2022-08-19T11:17:47;24.30;99.90
23087;DHT22;11712;51.134;4.156;2022-08-19T11:20:14;24.60;99.90
23087;DHT22;11712;51.134;4.156;2022-08-19T11:22:40;25.00;99.90
23087;DHT22;11712;51.134;4.156;2022-08-19T11:25:08;25.00;99.90
23087;DHT22;11712;51.134;4.156;2022-08-19T11:27:40;24.90;99.90
23087;DHT22;11712;51.134;4.156;2022-08-19T11:30:08;25.20;99.90
23087;DHT22;11712;51.134;4.156;2022-08-19T11:32:34;25.30;99.90
23087;DHT22;11712;51.134;4.156;2022-08-19T11:34:59;25.40;99.90
23087;DHT22;11712;51.134;4.156;2022-08-19T11:37:25;25.50;99.90
23087;DHT22;11712;51.134;4.156;2022-08-19T11:39:51;25.60;99.90
23087;DHT22;11712;51.134;4.156;2022-08-19T11:42:17;25.50;99.90
23087;DHT22;11712;51.134;4.156;2022-08-19T11:45:02;25.60;99.90
23087;DHT22;11712;51.134;4.156;2022-08-19T11:47:29;25.60;99.90
23087;DHT22;11712;51.134;4.156;2022-08-19T11:49:56;25.80;99.90
23087;DHT22;11712;51.134;4.156;2022-08-19T11:52:22;25.60;99.90
23087;DHT22;11712;51.134;4.156;2022-08-19T11:54:47;25.30;99.90
23087;DHT22;11712;51.134;4.156;2022-08-19T11:57:13;25.20;99.90
23087;DHT22;11712;51.134;4.156;2022-08-19T11:59:46;25.20;99.90
23087;DHT22;11712;51.134;4.156;2022-08-19T12:02:12;25.10;99.90
23087;DHT22;11712;51.134;4.156;2022-08-19T12:04:39;25.20;99.90
23087;DHT22;11712;51.134;4.156;2022-08-19T12:07:04;25.20;99.90
23087;DHT22;11712;51.134;4.156;2022-08-19T12:09:30;25.20;99.90
23087;DHT22;11712;51.134;4.156;2022-08-19T12:11:57;25.20;99.90
23087;DHT22;11712;51.134;4.156;2022-08-19T12:14:22;24.90;99.90
23087;DHT22;11712;51.134;4.156;2022-08-19T12:16:48;24.70;99.90
23087;DHT22;11712;51.134;4.156;2022-08-19T12:19:15;24.70;99.90
23087;DHT22;11712;51.134;4.156;2022-08-19T12:21:40;24.80;99.90
23087;DHT22;11712;51.134;4.156;2022-08-19T12:24:07;24.90;99.90
23087;DHT22;11712;51.134;4.156;2022-08-19T12:26:34;24.90;99.90
23087;DHT22;11712;51.134;4.156;2022-08-19T12:28:59;24.90;99.90
23087;DHT22;11712;51.134;4.156;2022-08-19T12:31:27;25.00;99.90
23087;DHT22;11712;51.134;4.156;2022-08-19T12:33:53;25.00;99.90
23087;DHT22;11712;51.134;4.156;2022-08-19T12:36:19;25.20;99.90
23087;DHT22;11712;51.134;4.156;2022-08-19T12:38:45;25.20;99.90
23087;DHT22;11712;51.134;4.156;2022-08-19T12:41:12;25.20;99.90
23087;DHT22;11712;51.134;4.156;2022-08-19T12:43:39;25.20;99.90
23087;DHT22;11712;51.134;4.156;2022-08-19T12:46:05;25.30;99.90
23087;DHT22;11712;51.134;4.156;2022-08-19T12:48:32;25.40;99.90
23087;DHT22;11712;51.134;4.156;2022-08-19T12:50:58;25.50;99.90
23087;DHT22;11712;51.134;4.156;2022-08-19T12:53:24;25.60;99.90
23087;DHT22;11712;51.134;4.156;2022-08-19T12:55:57;25.70;99.90
23087;DHT22;11712;51.134;4.156;2022-08-19T12:58:23;25.40;99.90
23087;DHT22;11712;51.134;4.156;2022-08-19T13:00:49;25.90;99.90
23087;DHT22;11712;51.134;4.156;2022-08-19T13:03:15;26.50;99.90
23087;DHT22;11712;51.134;4.156;2022-08-19T13:05:41;26.40;99.90
23087;DHT22;11712;51.134;4.156;2022-08-19T13:08:07;26.50;99.90
23087;DHT22;11712;51.134;4.156;2022-08-19T13:10:34;26.80;99.90
23087;DHT22;11712;51.134;4.156;2022-08-19T13:13:06;27.10;99.90
23087;DHT22;11712;51.134;4.156;2022-08-19T13:15:36;27.00;99.90
23087;DHT22;11712;51.134;4.156;2022-08-19T13:18:02;26.70;99.90
23087;DHT22;11712;51.134;4.156;2022-08-19T13:20:28;26.40;99.90
23087;DHT22;11712;51.134;4.156;2022-08-19T13:22:54;26.30;99.90
23087;DHT22;11712;51.134;4.156;2022-08-19T13:25:20;26.40;99.90
23087;DHT22;11712;51.134;4.156;2022-08-19T13:27:49;26.30;99.90
23087;DHT22;11712;51.134;4.156;2022-08-19T13:30:18;26.10;99.90
23087;DHT22;11712;51.134;4.156;2022-08-19T13:33:02;26.00;99.90
23087;DHT22;11712;51.134;4.156;2022-08-19T13:36:01;26.00;99.90
23087;DHT22;11712;51.134;4.156;2022-08-19T13:38:27;25.70;99.90
23087;DHT22;11712;51.134;4.156;2022-08-19T13:40:54;25.50;99.90
23087;DHT22;11712;51.134;4.156;2022-08-19T13:43:22;25.80;99.90
23087;DHT22;11712;51.134;4.156;2022-08-19T13:45:48;25.90;99.90
23087;DHT22;11712;51.134;4.156;2022-08-19T13:48:14;26.10;99.90
23087;DHT22;11712;51.134;4.156;2022-08-19T13:50:43;26.00;99.90
23087;DHT22;11712;51.134;4.156;2022-08-19T13:53:10;25.90;99.90
23087;DHT22;11712;51.134;4.156;2022-08-19T13:55:39;26.00;99.90
23087;DHT22;11712;51.134;4.156;2022-08-19T13:58:04;26.00;99.90
23087;DHT22;11712;51.134;4.156;2022-08-19T14:00:35;25.60;99.90
23087;DHT22;11712;51.134;4.156;2022-08-19T14:03:02;25.40;99.90
23087;DHT22;11712;51.134;4.156;2022-08-19T14:05:29;25.00;99.90
23087;DHT22;11712;51.134;4.156;2022-08-19T14:07:56;24.70;99.90
23087;DHT22;11712;51.134;4.156;2022-08-19T14:10:23;24.60;99.90
23087;DHT22;11712;51.134;4.156;2022-08-19T14:12:52;24.40;99.90
23087;DHT22;11712;51.134;4.156;2022-08-19T14:15:20;24.30;99.90
23087;DHT22;11712;51.134;4.156;2022-08-19T14:17:46;24.10;99.90
23087;DHT22;11712;51.134;4.156;2022-08-19T14:20:14;23.50;99.90
23087;DHT22;11712;51.134;4.156;2022-08-19T14:22:41;22.80;99.90
23087;DHT22;11712;51.134;4.156;2022-08-19T14:25:09;21.90;99.90
23087;DHT22;11712;51.134;4.156;2022-08-19T14:27:37;21.60;99.90
23087;DHT22;11712;51.134;4.156;2022-08-19T14:30:05;21.40;99.90
23087;DHT22;11712;51.134;4.156;2022-08-19T14:32:32;21.20;99.90
23087;DHT22;11712;51.134;4.156;2022-08-19T14:34:58;21.10;99.90
23087;DHT22;11712;51.134;4.156;2022-08-19T14:37:23;21.20;99.90
23087;DHT22;11712;51.134;4.156;2022-08-19T14:39:49;21.20;99.90
23087;DHT22;11712;51.134;4.156;2022-08-19T14:42:15;21.40;99.90
23087;DHT22;11712;51.134;4.156;2022-08-19T14:44:42;21.40;99.90
23087;DHT22;11712;51.134;4.156;2022-08-19T14:47:08;21.60;99.90
23087;DHT22;11712;51.134;4.156;2022-08-19T14:49:34;21.80;99.90
23087;DHT22;11712;51.134;4.156;2022-08-19T14:52:00;22.00;99.90
23087;DHT22;11712;51.134;4.156;2022-08-19T14:54:26;22.20;99.90
23087;DHT22;11712;51.134;4.156;2022-08-19T14:56:51;22.30;99.90
23087;DHT22;11712;51.134;4.156;2022-08-19T14:59:18;22.30;99.90
23087;DHT22;11712;51.134;4.156;2022-08-19T15:01:44;22.60;99.90
23087;DHT22;11712;51.134;4.156;2022-08-19T15:04:09;22.70;99.90
23087;DHT22;11712;51.134;4.156;2022-08-19T15:06:35;23.20;99.90
23087;DHT22;11712;51.134;4.156;2022-08-19T15:09:02;23.50;99.90
23087;DHT22;11712;51.134;4.156;2022-08-19T15:11:28;23.70;99.90
23087;DHT22;11712;51.134;4.156;2022-08-19T15:13:55;24.00;99.90
23087;DHT22;11712;51.134;4.156;2022-08-19T15:16:23;24.40;99.90
23087;DHT22;11712;51.134;4.156;2022-08-19T15:18:53;25.60;99.90
23087;DHT22;11712;51.134;4.156;2022-08-19T15:21:19;26.90;99.90
23087;DHT22;11712;51.134;4.156;2022-08-19T15:23:49;27.30;99.90
23087;DHT22;11712;51.134;4.156;2022-08-19T15:26:16;26.80;99.90
23087;DHT22;11712;51.134;4.156;2022-08-19T15:28:43;26.60;99.90
23087;DHT22;11712;51.134;4.156;2022-08-19T15:31:09;26.10;99.90
23087;DHT22;11712;51.134;4.156;2022-08-19T15:33:36;25.80;99.90
23087;DHT22;11712;51.134;4.156;2022-08-19T15:36:04;25.90;99.90
23087;DHT22;11712;51.134;4.156;2022-08-19T15:38:31;26.40;99.90
23087;DHT22;11712;51.134;4.156;2022-08-19T15:41:03;26.70;99.90
23087;DHT22;11712;51.134;4.156;2022-08-19T15:43:53;27.00;99.90